sensor_id;sensor_type;location;lat;lon;timestamp;P1;durP1;ratioP1;P2;durP2;ratioP2
41514;SDS011;27247;48.020;16.720;2023-05-09T00:00:40;7.93;;;5.55;;
41514;SDS011;27247;48.020;16.720;2023-05-09T00:04:50;12.20;;;5.85;;
41514;SDS011;27247;48.020;16.720;2023-05-09T00:09:00;10.02;;;6.03;;
41514;SDS011;27247;48.020;16.720;2023-05-09T00:13:11;13.00;;;6.35;;
41514;SDS011;27247;48.020;16.720;2023-05-09T00:17:22;11.07;;;6.05;;
41514;SDS011;27247;48.020;16.720;2023-05-09T00:21:33;8.73;;;6.10;;
41514;SDS011;27247;48.020;16.720;2023-05-09T00:25:43;12.88;;;5.80;;
41514;SDS011;27247;48.020;16.720;2023-05-09T00:29:54;12.15;;;7.25;;
41514;SDS011;27247;48.020;16.720;2023-05-09T00:34:04;10.88;;;7.40;;
41514;SDS011;27247;48.020;16.720;2023-05-09T00:38:15;12.13;;;6.17;;
41514;SDS011;27247;48.020;16.720;2023-05-09T00:42:25;11.07;;;6.50;;
41514;SDS011;27247;48.020;16.720;2023-05-09T00:46:35;10.77;;;6.22;;
41514;SDS011;27247;48.020;16.720;2023-05-09T00:50:46;7.95;;;6.38;;
41514;SDS011;27247;48.020;16.720;2023-05-09T00:55:01;7.65;;;5.68;;
41514;SDS011;27247;48.020;16.720;2023-05-09T00:59:12;9.18;;;6.22;;
41514;SDS011;27247;48.020;16.720;2023-05-09T01:03:22;10.48;;;6.15;;
41514;SDS011;27247;48.020;16.720;2023-05-09T01:07:44;9.13;;;6.20;;
41514;SDS011;27247;48.020;16.720;2023-05-09T01:16:46;10.30;;;6.65;;
41514;SDS011;27247;48.020;16.720;2023-05-09T01:21:16;10.05;;;6.55;;
41514;SDS011;27247;48.020;16.720;2023-05-09T01:30:06;8.30;;;6.40;;
41514;SDS011;27247;48.020;16.720;2023-05-09T01:34:18;10.27;;;6.43;;
41514;SDS011;27247;48.020;16.720;2023-05-09T01:38:33;8.85;;;6.32;;
41514;SDS011;27247;48.020;16.720;2023-05-09T01:42:51;12.05;;;6.90;;
41514;SDS011;27247;48.020;16.720;2023-05-09T01:47:07;9.90;;;6.20;;
41514;SDS011;27247;48.020;16.720;2023-05-09T01:51:18;8.57;;;6.43;;
41514;SDS011;27247;48.020;16.720;2023-05-09T01:55:30;10.77;;;6.25;;
41514;SDS011;27247;48.020;16.720;2023-05-09T01:59:43;8.75;;;6.35;;
41514;SDS011;27247;48.020;16.720;2023-05-09T02:03:55;8.88;;;6.50;;
41514;SDS011;27247;48.020;16.720;2023-05-09T02:08:06;9.65;;;6.78;;
41514;SDS011;27247;48.020;16.720;2023-05-09T02:12:17;9.00;;;6.50;;
41514;SDS011;27247;48.020;16.720;2023-05-09T02:16:28;10.50;;;6.57;;
41514;SDS011;27247;48.020;16.720;2023-05-09T02:20:39;10.68;;;6.10;;
41514;SDS011;27247;48.020;16.720;2023-05-09T02:24:49;10.00;;;7.07;;
41514;SDS011;27247;48.020;16.720;2023-05-09T02:29:00;9.63;;;6.60;;
41514;SDS011;27247;48.020;16.720;2023-05-09T02:33:12;10.07;;;6.65;;
41514;SDS011;27247;48.020;16.720;2023-05-09T02:37:23;9.80;;;7.15;;
41514;SDS011;27247;48.020;16.720;2023-05-09T02:41:34;13.73;;;6.43;;
41514;SDS011;27247;48.020;16.720;2023-05-09T02:45:45;12.00;;;6.82;;
41514;SDS011;27247;48.020;16.720;2023-05-09T02:49:56;12.63;;;7.20;;
41514;SDS011;27247;48.020;16.720;2023-05-09T02:54:06;10.43;;;6.90;;
41514;SDS011;27247;48.020;16.720;2023-05-09T02:58:17;9.38;;;6.50;;
41514;SDS011;27247;48.020;16.720;2023-05-09T03:02:28;13.23;;;6.63;;
41514;SDS011;27247;48.020;16.720;2023-05-09T03:06:38;9.90;;;6.93;;
41514;SDS011;27247;48.020;16.720;2023-05-09T03:10:49;10.18;;;6.85;;
41514;SDS011;27247;48.020;16.720;2023-05-09T03:15:00;7.57;;;6.45;;
41514;SDS011;27247;48.020;16.720;2023-05-09T03:19:10;11.20;;;7.67;;
41514;SDS011;27247;48.020;16.720;2023-05-09T03:23:20;9.73;;;7.23;;
41514;SDS011;27247;48.020;16.720;2023-05-09T03:27:31;10.33;;;7.00;;
41514;SDS011;27247;48.020;16.720;2023-05-09T03:31:41;8.95;;;6.85;;
41514;SDS011;27247;48.020;16.720;2023-05-09T03:35:51;12.63;;;7.77;;
41514;SDS011;27247;48.020;16.720;2023-05-09T03:40:02;14.07;;;7.00;;
41514;SDS011;27247;48.020;16.720;2023-05-09T03:44:12;9.98;;;7.72;;
41514;SDS011;27247;48.020;16.720;2023-05-09T03:48:23;9.97;;;7.20;;
41514;SDS011;27247;48.020;16.720;2023-05-09T03:52:33;11.27;;;8.03;;
41514;SDS011;27247;48.020;16.720;2023-05-09T03:56:43;9.32;;;6.22;;
41514;SDS011;27247;48.020;16.720;2023-05-09T04:00:54;11.60;;;7.03;;
41514;SDS011;27247;48.020;16.720;2023-05-09T04:05:05;12.90;;;7.07;;
41514;SDS011;27247;48.020;16.720;2023-05-09T04:09:15;11.55;;;6.85;;
41514;SDS011;27247;48.020;16.720;2023-05-09T04:13:25;11.60;;;7.25;;
41514;SDS011;27247;48.020;16.720;2023-05-09T04:17:37;12.63;;;7.40;;
41514;SDS011;27247;48.020;16.720;2023-05-09T04:21:47;10.80;;;7.03;;
41514;SDS011;27247;48.020;16.720;2023-05-09T04:25:57;12.40;;;7.00;;
41514;SDS011;27247;48.020;16.720;2023-05-09T04:30:08;11.35;;;7.40;;
41514;SDS011;27247;48.020;16.720;2023-05-09T04:34:19;17.73;;;8.77;;
41514;SDS011;27247;48.020;16.720;2023-05-09T04:38:29;10.60;;;7.67;;
41514;SDS011;27247;48.020;16.720;2023-05-09T04:42:39;10.70;;;7.23;;
41514;SDS011;27247;48.020;16.720;2023-05-09T04:46:51;13.18;;;7.45;;
41514;SDS011;27247;48.020;16.720;2023-05-09T04:51:04;10.00;;;7.20;;
41514;SDS011;27247;48.020;16.720;2023-05-09T04:55:14;13.13;;;7.80;;
41514;SDS011;27247;48.020;16.720;2023-05-09T04:59:24;12.50;;;7.70;;
41514;SDS011;27247;48.020;16.720;2023-05-09T05:03:34;10.23;;;7.43;;
41514;SDS011;27247;48.020;16.720;2023-05-09T05:07:45;11.15;;;7.40;;
41514;SDS011;27247;48.020;16.720;2023-05-09T05:11:55;12.57;;;8.10;;
41514;SDS011;27247;48.020;16.720;2023-05-09T05:16:05;10.07;;;7.63;;
41514;SDS011;27247;48.020;16.720;2023-05-09T05:20:16;10.20;;;7.53;;
41514;SDS011;27247;48.020;16.720;2023-05-09T05:24:26;11.52;;;7.70;;
41514;SDS011;27247;48.020;16.720;2023-05-09T05:28:37;10.75;;;7.43;;
41514;SDS011;27247;48.020;16.720;2023-05-09T05:32:47;10.57;;;6.90;;
41514;SDS011;27247;48.020;16.720;2023-05-09T05:36:57;18.48;;;7.57;;
41514;SDS011;27247;48.020;16.720;2023-05-09T05:41:08;9.20;;;6.90;;
41514;SDS011;27247;48.020;16.720;2023-05-09T05:45:21;10.73;;;7.53;;
41514;SDS011;27247;48.020;16.720;2023-05-09T05:49:31;11.63;;;7.22;;
41514;SDS011;27247;48.020;16.720;2023-05-09T05:53:41;12.90;;;7.32;;
41514;SDS011;27247;48.020;16.720;2023-05-09T05:57:52;13.47;;;7.70;;
41514;SDS011;27247;48.020;16.720;2023-05-09T06:02:02;9.90;;;7.15;;
41514;SDS011;27247;48.020;16.720;2023-05-09T06:06:13;9.88;;;6.38;;
41514;SDS011;27247;48.020;16.720;2023-05-09T06:10:23;12.57;;;6.97;;
41514;SDS011;27247;48.020;16.720;2023-05-09T06:14:33;10.47;;;6.53;;
41514;SDS011;27247;48.020;16.720;2023-05-09T06:18:44;9.23;;;5.70;;
41514;SDS011;27247;48.020;16.720;2023-05-09T06:22:54;7.40;;;4.78;;
41514;SDS011;27247;48.020;16.720;2023-05-09T06:27:04;10.00;;;5.00;;
41514;SDS011;27247;48.020;16.720;2023-05-09T06:31:15;9.60;;;4.60;;
41514;SDS011;27247;48.020;16.720;2023-05-09T06:35:25;10.47;;;5.67;;
41514;SDS011;27247;48.020;16.720;2023-05-09T06:39:35;8.23;;;4.67;;
41514;SDS011;27247;48.020;16.720;2023-05-09T06:43:46;7.60;;;4.57;;
41514;SDS011;27247;48.020;16.720;2023-05-09T06:47:56;6.03;;;4.10;;
41514;SDS011;27247;48.020;16.720;2023-05-09T06:52:07;11.33;;;5.33;;
41514;SDS011;27247;48.020;16.720;2023-05-09T06:56:17;5.82;;;4.45;;
41514;SDS011;27247;48.020;16.720;2023-05-09T07:00:30;10.40;;;4.82;;
41514;SDS011;27247;48.020;16.720;2023-05-09T07:04:40;7.35;;;4.10;;
41514;SDS011;27247;48.020;16.720;2023-05-09T07:08:51;6.87;;;4.23;;
41514;SDS011;27247;48.020;16.720;2023-05-09T07:13:01;7.10;;;4.27;;
41514;SDS011;27247;48.020;16.720;2023-05-09T07:17:11;6.93;;;4.67;;
41514;SDS011;27247;48.020;16.720;2023-05-09T07:21:22;6.60;;;4.07;;
41514;SDS011;27247;48.020;16.720;2023-05-09T07:25:32;7.32;;;4.40;;
41514;SDS011;27247;48.020;16.720;2023-05-09T07:29:42;8.05;;;4.28;;
41514;SDS011;27247;48.020;16.720;2023-05-09T07:33:53;6.63;;;4.33;;
41514;SDS011;27247;48.020;16.720;2023-05-09T07:38:03;14.13;;;5.77;;
41514;SDS011;27247;48.020;16.720;2023-05-09T07:42:15;7.65;;;4.47;;
41514;SDS011;27247;48.020;16.720;2023-05-09T07:46:25;4.97;;;4.17;;
41514;SDS011;27247;48.020;16.720;2023-05-09T07:50:35;7.93;;;4.20;;
41514;SDS011;27247;48.020;16.720;2023-05-09T07:54:46;5.27;;;4.27;;
41514;SDS011;27247;48.020;16.720;2023-05-09T07:58:56;5.20;;;4.03;;
41514;SDS011;27247;48.020;16.720;2023-05-09T08:03:06;6.97;;;4.47;;
41514;SDS011;27247;48.020;16.720;2023-05-09T08:07:17;6.32;;;4.20;;
41514;SDS011;27247;48.020;16.720;2023-05-09T08:11:27;9.03;;;4.90;;
41514;SDS011;27247;48.020;16.720;2023-05-09T08:15:37;7.07;;;4.93;;
41514;SDS011;27247;48.020;16.720;2023-05-09T08:19:48;8.70;;;4.87;;
41514;SDS011;27247;48.020;16.720;2023-05-09T08:23:58;7.93;;;4.77;;
41514;SDS011;27247;48.020;16.720;2023-05-09T08:28:09;8.05;;;5.43;;
41514;SDS011;27247;48.020;16.720;2023-05-09T08:32:20;7.97;;;4.05;;
41514;SDS011;27247;48.020;16.720;2023-05-09T08:36:30;6.70;;;4.50;;
41514;SDS011;27247;48.020;16.720;2023-05-09T08:40:41;7.63;;;5.35;;
41514;SDS011;27247;48.020;16.720;2023-05-09T08:44:51;8.40;;;4.97;;
41514;SDS011;27247;48.020;16.720;2023-05-09T08:49:03;5.95;;;4.78;;
41514;SDS011;27247;48.020;16.720;2023-05-09T08:53:16;7.85;;;4.78;;
41514;SDS011;27247;48.020;16.720;2023-05-09T08:57:26;9.63;;;5.18;;
41514;SDS011;27247;48.020;16.720;2023-05-09T09:01:37;8.60;;;5.05;;
41514;SDS011;27247;48.020;16.720;2023-05-09T09:05:48;9.80;;;5.07;;
41514;SDS011;27247;48.020;16.720;2023-05-09T09:10:00;6.72;;;5.00;;
41514;SDS011;27247;48.020;16.720;2023-05-09T09:14:14;8.25;;;5.45;;
41514;SDS011;27247;48.020;16.720;2023-05-09T09:18:29;11.63;;;5.75;;
41514;SDS011;27247;48.020;16.720;2023-05-09T09:22:42;9.35;;;5.60;;
41514;SDS011;27247;48.020;16.720;2023-05-09T09:26:55;7.45;;;4.97;;
41514;SDS011;27247;48.020;16.720;2023-05-09T09:31:18;10.35;;;4.97;;
41514;SDS011;27247;48.020;16.720;2023-05-09T09:35:36;6.22;;;5.35;;
41514;SDS011;27247;48.020;16.720;2023-05-09T09:39:52;7.40;;;5.47;;
41514;SDS011;27247;48.020;16.720;2023-05-09T09:48:22;5.60;;;4.28;;
41514;SDS011;27247;48.020;16.720;2023-05-09T09:52:49;10.75;;;4.50;;
41514;SDS011;27247;48.020;16.720;2023-05-09T09:57:01;7.63;;;4.80;;
41514;SDS011;27247;48.020;16.720;2023-05-09T10:01:11;7.85;;;5.15;;
41514;SDS011;27247;48.020;16.720;2023-05-09T10:05:29;7.32;;;4.90;;
41514;SDS011;27247;48.020;16.720;2023-05-09T10:09:40;8.32;;;5.53;;
41514;SDS011;27247;48.020;16.720;2023-05-09T10:13:51;7.20;;;5.18;;
41514;SDS011;27247;48.020;16.720;2023-05-09T10:18:02;6.60;;;5.15;;
41514;SDS011;27247;48.020;16.720;2023-05-09T10:22:13;9.50;;;5.22;;
41514;SDS011;27247;48.020;16.720;2023-05-09T10:26:26;10.43;;;4.72;;
41514;SDS011;27247;48.020;16.720;2023-05-09T10:35:15;6.95;;;5.07;;
41514;SDS011;27247;48.020;16.720;2023-05-09T10:39:27;10.73;;;4.50;;
41514;SDS011;27247;48.020;16.720;2023-05-09T10:43:38;9.60;;;5.03;;
41514;SDS011;27247;48.020;16.720;2023-05-09T10:47:49;6.82;;;4.78;;
41514;SDS011;27247;48.020;16.720;2023-05-09T10:52:01;10.30;;;4.82;;
41514;SDS011;27247;48.020;16.720;2023-05-09T10:56:28;8.48;;;4.80;;
41514;SDS011;27247;48.020;16.720;2023-05-09T11:00:40;6.53;;;5.17;;
41514;SDS011;27247;48.020;16.720;2023-05-09T11:05:11;11.95;;;3.67;;
41514;SDS011;27247;48.020;16.720;2023-05-09T11:09:26;6.82;;;4.35;;
41514;SDS011;27247;48.020;16.720;2023-05-09T11:13:44;6.25;;;4.47;;
41514;SDS011;27247;48.020;16.720;2023-05-09T11:18:10;7.40;;;4.60;;
41514;SDS011;27247;48.020;16.720;2023-05-09T11:22:25;7.05;;;4.82;;
41514;SDS011;27247;48.020;16.720;2023-05-09T11:26:37;8.65;;;4.47;;
41514;SDS011;27247;48.020;16.720;2023-05-09T11:30:49;5.78;;;4.13;;
41514;SDS011;27247;48.020;16.720;2023-05-09T11:35:10;4.90;;;3.60;;
41514;SDS011;27247;48.020;16.720;2023-05-09T11:40:12;4.43;;;3.90;;
41514;SDS011;27247;48.020;16.720;2023-05-09T11:44:16;8.20;;;3.80;;
41514;SDS011;27247;48.020;16.720;2023-05-09T11:48:28;5.50;;;3.55;;
41514;SDS011;27247;48.020;16.720;2023-05-09T11:52:39;6.82;;;4.38;;
41514;SDS011;27247;48.020;16.720;2023-05-09T11:56:50;7.65;;;4.40;;
41514;SDS011;27247;48.020;16.720;2023-05-09T12:01:00;7.37;;;3.97;;
41514;SDS011;27247;48.020;16.720;2023-05-09T12:05:11;7.47;;;4.15;;
41514;SDS011;27247;48.020;16.720;2023-05-09T12:09:24;13.13;;;3.80;;
41514;SDS011;27247;48.020;16.720;2023-05-09T12:13:47;9.23;;;3.95;;
41514;SDS011;27247;48.020;16.720;2023-05-09T12:18:02;18.40;;;4.53;;
41514;SDS011;27247;48.020;16.720;2023-05-09T12:22:14;5.93;;;3.67;;
41514;SDS011;27247;48.020;16.720;2023-05-09T12:26:24;4.13;;;3.15;;
41514;SDS011;27247;48.020;16.720;2023-05-09T12:30:36;6.25;;;3.28;;
41514;SDS011;27247;48.020;16.720;2023-05-09T12:34:46;6.78;;;3.90;;
41514;SDS011;27247;48.020;16.720;2023-05-09T12:38:57;4.35;;;3.33;;
41514;SDS011;27247;48.020;16.720;2023-05-09T12:43:08;5.53;;;3.60;;
41514;SDS011;27247;48.020;16.720;2023-05-09T12:47:18;4.60;;;3.17;;
41514;SDS011;27247;48.020;16.720;2023-05-09T12:51:29;6.25;;;3.28;;
41514;SDS011;27247;48.020;16.720;2023-05-09T12:55:40;5.60;;;3.72;;
41514;SDS011;27247;48.020;16.720;2023-05-09T12:59:50;5.32;;;3.75;;
41514;SDS011;27247;48.020;16.720;2023-05-09T13:04:07;5.90;;;4.03;;
41514;SDS011;27247;48.020;16.720;2023-05-09T13:08:17;6.68;;;4.22;;
41514;SDS011;27247;48.020;16.720;2023-05-09T13:12:30;6.13;;;4.30;;
41514;SDS011;27247;48.020;16.720;2023-05-09T13:16:40;7.20;;;4.00;;
41514;SDS011;27247;48.020;16.720;2023-05-09T13:20:52;7.20;;;4.05;;
41514;SDS011;27247;48.020;16.720;2023-05-09T13:25:03;8.35;;;3.92;;
41514;SDS011;27247;48.020;16.720;2023-05-09T13:29:14;4.68;;;3.63;;
41514;SDS011;27247;48.020;16.720;2023-05-09T13:33:24;9.40;;;3.45;;
41514;SDS011;27247;48.020;16.720;2023-05-09T13:37:34;5.35;;;3.92;;
41514;SDS011;27247;48.020;16.720;2023-05-09T13:41:45;5.22;;;3.38;;
41514;SDS011;27247;48.020;16.720;2023-05-09T13:45:55;6.53;;;3.88;;
41514;SDS011;27247;48.020;16.720;2023-05-09T13:50:06;5.00;;;4.03;;
41514;SDS011;27247;48.020;16.720;2023-05-09T13:54:17;5.47;;;3.70;;
41514;SDS011;27247;48.020;16.720;2023-05-09T13:58:28;5.53;;;3.20;;
41514;SDS011;27247;48.020;16.720;2023-05-09T14:02:39;5.93;;;3.70;;
41514;SDS011;27247;48.020;16.720;2023-05-09T14:06:49;6.35;;;3.40;;
41514;SDS011;27247;48.020;16.720;2023-05-09T14:11:00;4.88;;;3.70;;
41514;SDS011;27247;48.020;16.720;2023-05-09T14:15:10;7.57;;;3.50;;
41514;SDS011;27247;48.020;16.720;2023-05-09T14:19:21;7.65;;;3.00;;
41514;SDS011;27247;48.020;16.720;2023-05-09T14:23:31;8.57;;;3.40;;
41514;SDS011;27247;48.020;16.720;2023-05-09T14:27:42;5.67;;;3.00;;
41514;SDS011;27247;48.020;16.720;2023-05-09T14:31:52;5.15;;;3.45;;
41514;SDS011;27247;48.020;16.720;2023-05-09T14:36:03;5.70;;;3.70;;
41514;SDS011;27247;48.020;16.720;2023-05-09T14:40:15;4.50;;;3.03;;
41514;SDS011;27247;48.020;16.720;2023-05-09T14:44:25;5.63;;;2.90;;
41514;SDS011;27247;48.020;16.720;2023-05-09T14:48:36;4.28;;;3.28;;
41514;SDS011;27247;48.020;16.720;2023-05-09T14:52:47;3.30;;;3.00;;
41514;SDS011;27247;48.020;16.720;2023-05-09T14:56:58;4.35;;;2.97;;
41514;SDS011;27247;48.020;16.720;2023-05-09T15:01:10;7.28;;;4.88;;
41514;SDS011;27247;48.020;16.720;2023-05-09T15:05:22;4.50;;;2.90;;
41514;SDS011;27247;48.020;16.720;2023-05-09T15:09:32;8.00;;;3.47;;
41514;SDS011;27247;48.020;16.720;2023-05-09T15:13:42;3.87;;;2.97;;
41514;SDS011;27247;48.020;16.720;2023-05-09T15:17:53;3.30;;;2.90;;
41514;SDS011;27247;48.020;16.720;2023-05-09T15:22:03;4.85;;;2.42;;
41514;SDS011;27247;48.020;16.720;2023-05-09T15:26:15;3.58;;;2.58;;
41514;SDS011;27247;48.020;16.720;2023-05-09T15:30:26;4.90;;;2.30;;
41514;SDS011;27247;48.020;16.720;2023-05-09T15:34:36;3.20;;;2.40;;
41514;SDS011;27247;48.020;16.720;2023-05-09T15:38:48;4.15;;;2.85;;
41514;SDS011;27247;48.020;16.720;2023-05-09T15:42:58;3.85;;;2.90;;
41514;SDS011;27247;48.020;16.720;2023-05-09T15:47:09;5.72;;;2.35;;
41514;SDS011;27247;48.020;16.720;2023-05-09T15:51:19;3.33;;;2.38;;
41514;SDS011;27247;48.020;16.720;2023-05-09T15:55:30;6.65;;;2.67;;
41514;SDS011;27247;48.020;16.720;2023-05-09T15:59:41;2.30;;;2.10;;
41514;SDS011;27247;48.020;16.720;2023-05-09T16:03:51;4.70;;;2.73;;
41514;SDS011;27247;48.020;16.720;2023-05-09T16:08:01;5.33;;;2.60;;
41514;SDS011;27247;48.020;16.720;2023-05-09T16:12:12;6.47;;;2.17;;
41514;SDS011;27247;48.020;16.720;2023-05-09T16:16:22;2.67;;;2.47;;
41514;SDS011;27247;48.020;16.720;2023-05-09T16:20:33;3.27;;;2.60;;
41514;SDS011;27247;48.020;16.720;2023-05-09T16:24:46;4.30;;;2.70;;
41514;SDS011;27247;48.020;16.720;2023-05-09T16:28:58;6.18;;;2.47;;
41514;SDS011;27247;48.020;16.720;2023-05-09T16:33:08;5.57;;;2.33;;
41514;SDS011;27247;48.020;16.720;2023-05-09T16:37:18;2.97;;;2.47;;
41514;SDS011;27247;48.020;16.720;2023-05-09T16:41:29;2.97;;;2.30;;
41514;SDS011;27247;48.020;16.720;2023-05-09T16:45:39;5.85;;;2.58;;
41514;SDS011;27247;48.020;16.720;2023-05-09T16:49:49;4.73;;;2.60;;
41514;SDS011;27247;48.020;16.720;2023-05-09T16:54:00;4.27;;;2.73;;
41514;SDS011;27247;48.020;16.720;2023-05-09T16:58:10;4.37;;;2.73;;
41514;SDS011;27247;48.020;16.720;2023-05-09T17:02:20;5.43;;;2.40;;
41514;SDS011;27247;48.020;16.720;2023-05-09T17:06:31;3.38;;;1.90;;
41514;SDS011;27247;48.020;16.720;2023-05-09T17:10:45;3.53;;;2.05;;
41514;SDS011;27247;48.020;16.720;2023-05-09T17:14:55;3.87;;;2.20;;
41514;SDS011;27247;48.020;16.720;2023-05-09T17:19:05;2.60;;;2.17;;
41514;SDS011;27247;48.020;16.720;2023-05-09T17:23:16;2.43;;;1.73;;
41514;SDS011;27247;48.020;16.720;2023-05-09T17:27:26;5.60;;;2.10;;
41514;SDS011;27247;48.020;16.720;2023-05-09T17:31:36;2.22;;;1.90;;
41514;SDS011;27247;48.020;16.720;2023-05-09T17:35:47;3.90;;;2.10;;
41514;SDS011;27247;48.020;16.720;2023-05-09T17:39:58;4.75;;;2.03;;
41514;SDS011;27247;48.020;16.720;2023-05-09T17:44:09;7.40;;;3.30;;
41514;SDS011;27247;48.020;16.720;2023-05-09T17:48:22;5.50;;;2.60;;
41514;SDS011;27247;48.020;16.720;2023-05-09T17:52:33;10.43;;;2.63;;
41514;SDS011;27247;48.020;16.720;2023-05-09T17:56:46;4.47;;;2.85;;
41514;SDS011;27247;48.020;16.720;2023-05-09T18:01:00;10.38;;;3.13;;
41514;SDS011;27247;48.020;16.720;2023-05-09T18:05:10;7.73;;;3.13;;
41514;SDS011;27247;48.020;16.720;2023-05-09T18:09:20;7.93;;;3.80;;
41514;SDS011;27247;48.020;16.720;2023-05-09T18:13:31;5.53;;;3.30;;
41514;SDS011;27247;48.020;16.720;2023-05-09T18:17:43;8.85;;;3.13;;
41514;SDS011;27247;48.020;16.720;2023-05-09T18:21:57;5.10;;;2.92;;
41514;SDS011;27247;48.020;16.720;2023-05-09T18:26:07;4.60;;;2.78;;
41514;SDS011;27247;48.020;16.720;2023-05-09T18:30:17;2.50;;;2.30;;
41514;SDS011;27247;48.020;16.720;2023-05-09T18:34:28;7.80;;;4.05;;
41514;SDS011;27247;48.020;16.720;2023-05-09T18:38:39;3.67;;;2.80;;
41514;SDS011;27247;48.020;16.720;2023-05-09T18:42:49;6.63;;;2.97;;
41514;SDS011;27247;48.020;16.720;2023-05-09T18:47:00;4.47;;;2.83;;
41514;SDS011;27247;48.020;16.720;2023-05-09T18:51:10;4.95;;;2.97;;
41514;SDS011;27247;48.020;16.720;2023-05-09T18:55:21;5.03;;;2.42;;
41514;SDS011;27247;48.020;16.720;2023-05-09T18:59:32;4.68;;;2.38;;
41514;SDS011;27247;48.020;16.720;2023-05-09T19:03:42;4.53;;;2.90;;
41514;SDS011;27247;48.020;16.720;2023-05-09T19:07:55;4.65;;;2.80;;
41514;SDS011;27247;48.020;16.720;2023-05-09T19:12:05;3.17;;;2.35;;
41514;SDS011;27247;48.020;16.720;2023-05-09T19:16:18;4.00;;;2.40;;
41514;SDS011;27247;48.020;16.720;2023-05-09T19:20:30;4.28;;;1.80;;
41514;SDS011;27247;48.020;16.720;2023-05-09T19:24:41;3.20;;;2.17;;
41514;SDS011;27247;48.020;16.720;2023-05-09T19:28:51;2.72;;;2.10;;
41514;SDS011;27247;48.020;16.720;2023-05-09T19:33:05;5.55;;;2.08;;
41514;SDS011;27247;48.020;16.720;2023-05-09T19:37:16;3.42;;;2.20;;
41514;SDS011;27247;48.020;16.720;2023-05-09T19:41:26;4.32;;;2.47;;
41514;SDS011;27247;48.020;16.720;2023-05-09T19:45:37;7.32;;;2.40;;
41514;SDS011;27247;48.020;16.720;2023-05-09T19:49:47;5.38;;;1.95;;
41514;SDS011;27247;48.020;16.720;2023-05-09T19:53:58;4.03;;;2.78;;
41514;SDS011;27247;48.020;16.720;2023-05-09T19:58:09;5.68;;;2.90;;
41514;SDS011;27247;48.020;16.720;2023-05-09T20:02:19;3.70;;;2.38;;
41514;SDS011;27247;48.020;16.720;2023-05-09T20:06:30;2.67;;;1.80;;
41514;SDS011;27247;48.020;16.720;2023-05-09T20:10:40;4.72;;;2.03;;
41514;SDS011;27247;48.020;16.720;2023-05-09T20:14:50;4.93;;;2.30;;
41514;SDS011;27247;48.020;16.720;2023-05-09T20:19:01;2.50;;;1.93;;
41514;SDS011;27247;48.020;16.720;2023-05-09T20:23:14;9.32;;;2.45;;
41514;SDS011;27247;48.020;16.720;2023-05-09T20:27:24;4.85;;;2.35;;
41514;SDS011;27247;48.020;16.720;2023-05-09T20:31:35;3.40;;;2.30;;
41514;SDS011;27247;48.020;16.720;2023-05-09T20:35:46;3.85;;;2.20;;
41514;SDS011;27247;48.020;16.720;2023-05-09T20:39:59;3.45;;;2.40;;
41514;SDS011;27247;48.020;16.720;2023-05-09T20:44:10;6.60;;;2.05;;
41514;SDS011;27247;48.020;16.720;2023-05-09T20:48:20;5.63;;;2.30;;
41514;SDS011;27247;48.020;16.720;2023-05-09T20:52:32;4.13;;;2.80;;
41514;SDS011;27247;48.020;16.720;2023-05-09T20:56:42;4.33;;;2.37;;
41514;SDS011;27247;48.020;16.720;2023-05-09T21:00:53;4.17;;;2.80;;
41514;SDS011;27247;48.020;16.720;2023-05-09T21:05:03;5.07;;;2.78;;
41514;SDS011;27247;48.020;16.720;2023-05-09T21:09:15;4.97;;;2.40;;
41514;SDS011;27247;48.020;16.720;2023-05-09T21:13:25;2.60;;;1.92;;
41514;SDS011;27247;48.020;16.720;2023-05-09T21:17:35;5.03;;;2.43;;
41514;SDS011;27247;48.020;16.720;2023-05-09T21:21:46;4.15;;;2.20;;
41514;SDS011;27247;48.020;16.720;2023-05-09T21:25:56;2.57;;;2.07;;
41514;SDS011;27247;48.020;16.720;2023-05-09T21:30:07;3.67;;;2.65;;
41514;SDS011;27247;48.020;16.720;2023-05-09T21:34:17;6.10;;;2.38;;
41514;SDS011;27247;48.020;16.720;2023-05-09T21:38:28;7.47;;;2.42;;
41514;SDS011;27247;48.020;16.720;2023-05-09T21:42:38;4.30;;;2.00;;
41514;SDS011;27247;48.020;16.720;2023-05-09T21:46:50;3.75;;;1.98;;
41514;SDS011;27247;48.020;16.720;2023-05-09T21:51:00;5.47;;;1.87;;
41514;SDS011;27247;48.020;16.720;2023-05-09T21:55:12;3.35;;;1.95;;
41514;SDS011;27247;48.020;16.720;2023-05-09T21:59:22;2.80;;;2.03;;
41514;SDS011;27247;48.020;16.720;2023-05-09T22:03:32;3.57;;;2.53;;
41514;SDS011;27247;48.020;16.720;2023-05-09T22:07:44;11.18;;;2.35;;
41514;SDS011;27247;48.020;16.720;2023-05-09T22:11:54;3.07;;;2.20;;
41514;SDS011;27247;48.020;16.720;2023-05-09T22:16:05;5.50;;;2.50;;
41514;SDS011;27247;48.020;16.720;2023-05-09T22:20:16;6.45;;;2.55;;
41514;SDS011;27247;48.020;16.720;2023-05-09T22:24:26;3.70;;;2.30;;
41514;SDS011;27247;48.020;16.720;2023-05-09T22:28:37;3.88;;;2.20;;
41514;SDS011;27247;48.020;16.720;2023-05-09T22:32:47;2.78;;;2.30;;
41514;SDS011;27247;48.020;16.720;2023-05-09T22:36:57;2.70;;;2.50;;
41514;SDS011;27247;48.020;16.720;2023-05-09T22:41:08;4.53;;;2.60;;
41514;SDS011;27247;48.020;16.720;2023-05-09T22:45:18;4.95;;;2.85;;
41514;SDS011;27247;48.020;16.720;2023-05-09T22:49:29;5.20;;;2.80;;
41514;SDS011;27247;48.020;16.720;2023-05-09T22:53:40;4.30;;;2.55;;
41514;SDS011;27247;48.020;16.720;2023-05-09T22:57:50;3.67;;;2.33;;
41514;SDS011;27247;48.020;16.720;2023-05-09T23:02:00;6.50;;;2.60;;
41514;SDS011;27247;48.020;16.720;2023-05-09T23:06:10;6.87;;;2.53;;
41514;SDS011;27247;48.020;16.720;2023-05-09T23:10:21;9.32;;;3.35;;
41514;SDS011;27247;48.020;16.720;2023-05-09T23:14:31;7.65;;;3.05;;
41514;SDS011;27247;48.020;16.720;2023-05-09T23:18:42;3.30;;;2.37;;
41514;SDS011;27247;48.020;16.720;2023-05-09T23:22:52;5.47;;;2.90;;
41514;SDS011;27247;48.020;16.720;2023-05-09T23:27:04;6.35;;;2.88;;
41514;SDS011;27247;48.020;16.720;2023-05-09T23:31:14;5.33;;;2.67;;
41514;SDS011;27247;48.020;16.720;2023-05-09T23:35:25;4.85;;;3.05;;
41514;SDS011;27247;48.020;16.720;2023-05-09T23:39:35;7.68;;;2.92;;
41514;SDS011;27247;48.020;16.720;2023-05-09T23:43:46;6.33;;;3.07;;
41514;SDS011;27247;48.020;16.720;2023-05-09T23:47:56;5.43;;;2.90;;
41514;SDS011;27247;48.020;16.720;2023-05-09T23:52:07;4.90;;;3.08;;
41514;SDS011;27247;48.020;16.720;2023-05-09T23:56:18;10.13;;;3.40;;
